Terminal Aerodrome Forecast
Issued by NWS

Home | Current Version | Previous Version | Text Only | Print | Product List | Glossary On
Versions: 1 2 3 4 5 6 7 8 9 10 11 12 13 14 15 16
000
FTUS46 KMTR 232320
TAFSJC
TAF
KSJC 232320Z 2400/2424 32006KT P6SM FEW030
     FM240400 VRB03KT P6SM SCT200
     FM241100 14004KT P6SM BKN030
     FM241600 14015G20KT P6SM OVC020 PROB30 2420/2424 -RA OVC015=

USA.gov is the U.S. government's official web portal to all federal, state and local government web resources and services.